createdAt,value
2017-09-07T00:00:50.643Z,0
2017-09-07T00:01:52.044Z,0
2017-09-07T00:02:53.566Z,0
2017-09-07T00:03:54.970Z,0
2017-09-07T00:04:56.372Z,0
2017-09-07T00:05:57.785Z,0
2017-09-07T00:06:59.183Z,0
2017-09-07T00:08:00.669Z,0
2017-09-07T00:09:02.072Z,0
2017-09-07T00:10:03.554Z,0
2017-09-07T00:11:04.954Z,0
2017-09-07T00:12:06.362Z,0
2017-09-07T00:13:07.868Z,0
2017-09-07T00:14:09.271Z,0
2017-09-07T00:15:10.666Z,0
2017-09-07T00:16:12.085Z,0
2017-09-07T00:17:13.486Z,0
2017-09-07T00:18:14.980Z,0
2017-09-07T00:19:16.378Z,0
2017-09-07T00:20:17.795Z,0
2017-09-07T00:21:19.300Z,0
2017-09-07T00:22:20.701Z,0
2017-09-07T00:23:22.100Z,0
2017-09-07T00:24:23.621Z,0
2017-09-07T00:25:25.052Z,0
2017-09-07T00:26:26.458Z,0
2017-09-07T00:27:27.931Z,0
2017-09-07T00:28:29.331Z,0
2017-09-07T00:29:30.730Z,0
2017-09-07T00:30:32.148Z,0
2017-09-07T00:31:33.547Z,0
2017-09-07T00:32:34.946Z,0
2017-09-07T00:33:36.368Z,0
2017-09-07T00:34:37.767Z,0
2017-09-07T00:35:39.167Z,0
2017-09-07T00:36:40.585Z,0
2017-09-07T00:37:41.985Z,0
2017-09-07T00:38:43.470Z,0
2017-09-07T00:39:44.867Z,0
2017-09-07T00:40:46.348Z,0
2017-09-07T00:41:47.748Z,0
2017-09-07T00:42:49.235Z,0
2017-09-07T00:43:50.635Z,0
2017-09-07T00:44:52.110Z,0
2017-09-07T00:45:53.509Z,0
2017-09-07T00:46:54.906Z,0
2017-09-07T00:47:56.331Z,0
2017-09-07T00:48:58.671Z,0
2017-09-07T00:50:00.072Z,0
2017-09-07T00:51:01.569Z,0
2017-09-07T00:52:02.970Z,0
2017-09-07T00:53:04.453Z,0
2017-09-07T00:54:05.891Z,0
2017-09-07T00:55:07.331Z,0
2017-09-07T00:56:08.734Z,0
2017-09-07T00:57:10.138Z,0
2017-09-07T00:58:11.558Z,0
2017-09-07T00:59:12.958Z,0
2017-09-07T01:00:14.360Z,0
2017-09-07T01:01:15.886Z,0
2017-09-07T01:02:17.515Z,0
2017-09-07T01:03:18.956Z,0
2017-09-07T01:04:20.355Z,0
2017-09-07T01:05:21.840Z,0
2017-09-07T01:06:23.240Z,0
2017-09-07T01:07:24.720Z,0
2017-09-07T01:08:26.115Z,0
2017-09-07T01:09:27.607Z,0
2017-09-07T01:10:29.009Z,0
2017-09-07T01:11:30.409Z,0
2017-09-07T01:12:31.921Z,0
2017-09-07T01:13:33.322Z,0
2017-09-07T01:14:34.739Z,0
2017-09-07T01:15:36.240Z,0
2017-09-07T01:16:37.640Z,0
2017-09-07T01:17:39.040Z,0
2017-09-07T01:18:40.460Z,0
2017-09-07T01:19:41.872Z,0
2017-09-07T01:20:43.277Z,0
2017-09-07T01:21:44.783Z,0
2017-09-07T01:22:46.181Z,0
2017-09-07T01:23:47.581Z,0
2017-09-07T01:24:49.023Z,0
2017-09-07T01:25:50.421Z,0
2017-09-07T01:26:51.816Z,0
2017-09-07T01:27:53.343Z,0
2017-09-07T01:28:54.734Z,0
2017-09-07T01:29:56.135Z,0
2017-09-07T01:30:57.642Z,0
2017-09-07T01:31:59.040Z,0
2017-09-07T01:33:00.440Z,0
2017-09-07T01:34:01.859Z,0
2017-09-07T01:35:03.264Z,0
2017-09-07T01:36:04.660Z,0
2017-09-07T01:37:06.079Z,0
2017-09-07T01:38:07.489Z,0
2017-09-07T01:39:08.888Z,0
2017-09-07T01:40:10.417Z,0
2017-09-07T01:41:11.852Z,0
2017-09-07T01:42:13.251Z,0
2017-09-07T01:43:14.719Z,0
2017-09-07T01:44:16.122Z,0
2017-09-07T01:45:17.601Z,0
2017-09-07T01:46:19.007Z,0
2017-09-07T01:47:20.495Z,0
2017-09-07T01:48:21.887Z,0
2017-09-07T01:49:23.364Z,0
2017-09-07T01:50:24.800Z,0
2017-09-07T01:51:26.243Z,0
2017-09-07T01:52:27.634Z,0
2017-09-07T01:53:29.124Z,0
2017-09-07T01:54:30.526Z,0
2017-09-07T01:55:32.005Z,0
2017-09-07T01:56:33.407Z,0
2017-09-07T01:57:34.808Z,0
2017-09-07T01:58:36.253Z,0
2017-09-07T01:59:37.652Z,0
2017-09-07T02:00:39.071Z,0
2017-09-07T02:01:40.560Z,0
2017-09-07T02:02:41.955Z,0
2017-09-07T02:03:43.356Z,0
2017-09-07T02:04:44.865Z,0
2017-09-07T02:05:46.274Z,0
2017-09-07T02:06:47.669Z,0
2017-09-07T02:07:49.082Z,0
2017-09-07T02:08:50.480Z,0
2017-09-07T02:09:51.885Z,0
2017-09-07T02:10:53.300Z,0
2017-09-07T02:11:54.703Z,0
2017-09-07T02:12:56.103Z,0
2017-09-07T02:13:57.523Z,0
2017-09-07T02:14:58.918Z,0
2017-09-07T02:16:00.353Z,0
2017-09-07T02:17:01.754Z,0
2017-09-07T02:18:03.162Z,0
2017-09-07T02:19:04.565Z,0
2017-09-07T02:20:06.062Z,0
2017-09-07T02:21:07.461Z,0
2017-09-07T02:22:08.859Z,0
2017-09-07T02:23:10.297Z,0
2017-09-07T02:24:11.694Z,0
2017-09-07T02:25:13.162Z,0
2017-09-07T02:26:14.561Z,0
2017-09-07T02:27:16.045Z,0
2017-09-07T02:28:17.442Z,0
2017-09-07T02:29:18.969Z,0
2017-09-07T02:30:20.363Z,0
2017-09-07T02:31:21.800Z,0
2017-09-07T02:32:23.205Z,0
2017-09-07T02:33:24.691Z,0
2017-09-07T02:34:26.088Z,0
2017-09-07T02:35:27.563Z,0
2017-09-07T02:36:28.975Z,0
2017-09-07T02:37:30.468Z,0
2017-09-07T02:38:31.867Z,0
2017-09-07T02:39:33.325Z,0
2017-09-07T02:40:34.726Z,0
2017-09-07T02:41:36.610Z,0
2017-09-07T02:42:38.031Z,0
2017-09-07T02:43:39.541Z,0
2017-09-07T02:44:40.938Z,0
2017-09-07T02:45:42.376Z,0
2017-09-07T02:46:43.776Z,0
2017-09-07T02:47:45.257Z,0
2017-09-07T02:48:46.659Z,0
2017-09-07T02:49:48.152Z,0
2017-09-07T02:50:49.544Z,0
2017-09-07T02:51:51.016Z,0
2017-09-07T02:52:52.417Z,0
2017-09-07T02:53:53.905Z,0
2017-09-07T02:54:55.304Z,0
2017-09-07T02:55:56.780Z,0
2017-09-07T02:56:58.178Z,0
2017-09-07T02:57:59.577Z,0
2017-09-07T02:59:00.998Z,0
2017-09-07T03:00:02.397Z,0
2017-09-07T03:01:03.797Z,0
2017-09-07T03:02:05.214Z,0
2017-09-07T03:03:06.616Z,0
2017-09-07T03:04:08.094Z,0
2017-09-07T03:05:09.501Z,0
2017-09-07T03:06:10.981Z,0
2017-09-07T03:07:12.381Z,0
2017-09-07T03:08:13.856Z,0
2017-09-07T03:09:15.258Z,0
2017-09-07T03:10:16.741Z,0
2017-09-07T03:11:18.139Z,0
2017-09-07T03:12:19.617Z,0
2017-09-07T03:13:21.022Z,0
2017-09-07T03:14:22.520Z,0
2017-09-07T03:15:23.900Z,0
2017-09-07T03:16:25.387Z,0
2017-09-07T03:17:26.788Z,0
2017-09-07T03:18:28.272Z,0
2017-09-07T03:19:29.671Z,0
2017-09-07T03:20:31.154Z,0
2017-09-07T03:21:32.571Z,0
2017-09-07T03:22:34.025Z,0
2017-09-07T03:23:35.424Z,0
2017-09-07T03:24:36.913Z,0
2017-09-07T03:25:38.313Z,0
2017-09-07T03:26:39.788Z,0
2017-09-07T03:27:41.193Z,0
2017-09-07T03:28:42.664Z,0
2017-09-07T03:29:44.069Z,0
2017-09-07T03:30:45.551Z,0
2017-09-07T03:31:46.948Z,0
2017-09-07T03:32:48.426Z,0
2017-09-07T03:33:49.828Z,0
2017-09-07T03:34:51.313Z,0
2017-09-07T03:35:52.715Z,0
2017-09-07T03:36:54.185Z,0
2017-09-07T03:37:55.588Z,0
2017-09-07T03:38:56.986Z,0
2017-09-07T03:39:58.403Z,0
2017-09-07T03:41:00.183Z,0
2017-09-07T03:42:01.595Z,0
2017-09-07T03:43:03.065Z,0
2017-09-07T03:44:04.461Z,0
2017-09-07T03:45:05.915Z,0
2017-09-07T03:46:07.314Z,0
2017-09-07T03:47:08.796Z,0
2017-09-07T03:48:10.195Z,0
2017-09-07T03:49:11.676Z,0
2017-09-07T03:50:13.075Z,0
2017-09-07T03:51:14.555Z,0
2017-09-07T03:52:15.957Z,0
2017-09-07T03:53:17.460Z,0
2017-09-07T03:54:18.858Z,0
2017-09-07T03:55:20.319Z,0
2017-09-07T03:56:21.714Z,0
2017-09-07T03:57:23.196Z,0
2017-09-07T03:58:24.609Z,0
2017-09-07T03:59:26.079Z,0
2017-09-07T04:00:27.477Z,0
2017-09-07T04:01:28.960Z,0
2017-09-07T04:02:30.359Z,0
2017-09-07T04:03:31.840Z,0
2017-09-07T04:04:33.256Z,0
2017-09-07T04:05:34.722Z,0
2017-09-07T04:06:36.195Z,0
2017-09-07T04:07:37.604Z,0
2017-09-07T04:08:39.242Z,0
2017-09-07T04:09:42.523Z,0
2017-09-07T04:10:43.993Z,0
2017-09-07T04:11:45.396Z,0
2017-09-07T04:12:46.825Z,0
2017-09-07T04:13:48.294Z,0
2017-09-07T04:14:49.692Z,0
2017-09-07T04:15:51.088Z,0
2017-09-07T04:16:52.509Z,0
2017-09-07T04:17:53.903Z,0
2017-09-07T04:18:55.309Z,0
2017-09-07T04:19:56.727Z,0
2017-09-07T04:20:58.128Z,0
2017-09-07T04:21:59.613Z,0
2017-09-07T04:23:01.011Z,0
2017-09-07T04:24:02.490Z,0
2017-09-07T04:25:03.901Z,0
2017-09-07T04:26:05.371Z,0
2017-09-07T04:27:06.792Z,0
2017-09-07T04:28:08.258Z,0
2017-09-07T04:29:09.657Z,0
2017-09-07T04:30:11.131Z,0
2017-09-07T04:31:12.529Z,0
2017-09-07T04:32:14.011Z,0
2017-09-07T04:33:15.421Z,0
2017-09-07T04:34:16.909Z,0
2017-09-07T04:35:18.314Z,0
2017-09-07T04:36:19.775Z,0
2017-09-07T04:37:21.174Z,0
2017-09-07T04:38:22.656Z,0
2017-09-07T04:39:24.054Z,0
2017-09-07T04:40:25.456Z,0
2017-09-07T04:41:26.889Z,0
2017-09-07T04:42:28.288Z,0
2017-09-07T04:43:29.688Z,0
2017-09-07T04:44:31.198Z,0
2017-09-07T04:45:32.598Z,0
2017-09-07T04:46:34.002Z,0
2017-09-07T04:47:35.423Z,0
2017-09-07T04:48:36.823Z,0
2017-09-07T04:49:38.230Z,0
2017-09-07T04:50:39.744Z,0
2017-09-07T04:51:41.141Z,0
2017-09-07T04:52:42.538Z,0
2017-09-07T04:53:44.059Z,0
2017-09-07T04:54:45.461Z,0
2017-09-07T04:55:47.148Z,0
2017-09-07T04:56:48.548Z,0
2017-09-07T04:57:50.028Z,0
2017-09-07T04:58:51.425Z,0
2017-09-07T04:59:52.829Z,0
2017-09-07T05:00:54.247Z,5
2017-09-07T05:01:55.657Z,5
2017-09-07T05:02:57.059Z,5
2017-09-07T05:03:58.566Z,5
2017-09-07T05:04:59.966Z,5
2017-09-07T05:06:01.365Z,5
2017-09-07T05:07:02.783Z,5
2017-09-07T05:08:04.230Z,5
2017-09-07T05:09:05.655Z,5
2017-09-07T05:10:07.103Z,5
2017-09-07T05:11:08.503Z,5
2017-09-07T05:12:09.988Z,5
2017-09-07T05:13:11.384Z,5
2017-09-07T05:14:12.779Z,5
2017-09-07T05:15:14.203Z,5
2017-09-07T05:16:15.603Z,10
2017-09-07T05:17:17.013Z,10
2017-09-07T05:18:18.542Z,10
2017-09-07T05:19:19.936Z,10
2017-09-07T05:20:21.332Z,15
2017-09-07T05:21:22.847Z,15
2017-09-07T05:22:24.279Z,15
2017-09-07T05:23:25.680Z,15
2017-09-07T05:24:27.172Z,15
2017-09-07T05:25:28.584Z,15
2017-09-07T05:26:29.985Z,15
2017-09-07T05:27:31.493Z,20
2017-09-07T05:28:32.891Z,20
2017-09-07T05:29:34.294Z,20
2017-09-07T05:30:35.896Z,20
2017-09-07T05:31:37.301Z,20
2017-09-07T05:32:38.853Z,20
2017-09-07T05:33:40.250Z,25
2017-09-07T05:34:41.676Z,25
2017-09-07T05:35:43.079Z,25
2017-09-07T05:36:44.558Z,30
2017-09-07T05:37:45.953Z,30
2017-09-07T05:38:47.438Z,30
2017-09-07T05:39:48.837Z,25
2017-09-07T05:40:50.230Z,20
2017-09-07T05:41:51.658Z,20
2017-09-07T05:42:53.059Z,20
2017-09-07T05:43:54.458Z,25
2017-09-07T05:44:55.872Z,25
2017-09-07T05:45:57.288Z,35
2017-09-07T05:46:58.757Z,30
2017-09-07T05:48:00.155Z,35
2017-09-07T05:49:01.634Z,35
2017-09-07T05:50:03.034Z,35
2017-09-07T05:51:04.512Z,35
2017-09-07T05:52:05.918Z,35
2017-09-07T05:53:07.396Z,35
2017-09-07T05:54:08.801Z,40
2017-09-07T05:55:10.200Z,40
2017-09-07T05:56:11.614Z,40
2017-09-07T05:57:13.020Z,40
2017-09-07T05:58:14.426Z,35
2017-09-07T05:59:15.937Z,30
2017-09-07T06:00:17.355Z,30
2017-09-07T06:01:18.832Z,30
2017-09-07T06:02:20.235Z,30
2017-09-07T06:03:21.815Z,35
2017-09-07T06:04:23.215Z,35
2017-09-07T06:05:24.832Z,40
2017-09-07T06:06:26.267Z,45
2017-09-07T06:07:27.683Z,45
2017-09-07T06:08:29.089Z,45
2017-09-07T06:09:30.493Z,45
2017-09-07T06:10:32.019Z,45
2017-09-07T06:11:33.422Z,45
2017-09-07T06:12:34.884Z,45
2017-09-07T06:13:36.296Z,45
2017-09-07T06:14:37.767Z,45
2017-09-07T06:15:39.174Z,50
2017-09-07T06:16:40.655Z,55
2017-09-07T06:17:42.056Z,60
2017-09-07T06:18:43.539Z,65
2017-09-07T06:19:44.938Z,65
2017-09-07T06:20:46.346Z,70
2017-09-07T06:21:47.828Z,70
2017-09-07T06:22:49.231Z,70
2017-09-07T06:23:50.637Z,70
2017-09-07T06:24:52.210Z,60
2017-09-07T06:25:53.615Z,60
2017-09-07T06:26:55.018Z,60
2017-09-07T06:27:56.478Z,60
2017-09-07T06:28:57.881Z,65
2017-09-07T06:29:59.282Z,70
2017-09-07T06:31:00.789Z,80
2017-09-07T06:32:02.192Z,80
2017-09-07T06:33:03.596Z,75
2017-09-07T06:34:05.112Z,75
2017-09-07T06:35:06.513Z,80
2017-09-07T06:36:07.922Z,80
2017-09-07T06:37:09.434Z,75
2017-09-07T06:38:10.836Z,65
2017-09-07T06:39:12.319Z,65
2017-09-07T06:40:13.722Z,55
2017-09-07T06:41:15.124Z,35
2017-09-07T06:42:16.634Z,30
2017-09-07T06:43:18.043Z,30
2017-09-07T06:44:19.452Z,35
2017-09-07T06:45:20.955Z,45
2017-09-07T06:46:22.359Z,45
2017-09-07T06:47:23.760Z,40
2017-09-07T06:48:25.276Z,25
2017-09-07T06:49:26.680Z,25
2017-09-07T06:50:28.085Z,30
2017-09-07T06:51:29.595Z,35
2017-09-07T06:52:31.000Z,35
2017-09-07T06:53:32.402Z,25
2017-09-07T06:54:33.925Z,25
2017-09-07T06:55:35.329Z,25
2017-09-07T06:56:36.938Z,35
2017-09-07T06:57:38.445Z,40
2017-09-07T06:58:39.905Z,45
2017-09-07T06:59:41.324Z,55
2017-09-07T07:00:42.731Z,65
2017-09-07T07:01:44.209Z,75
2017-09-07T07:02:45.612Z,80
2017-09-07T07:03:47.091Z,80
2017-09-07T07:04:48.496Z,75
2017-09-07T07:05:49.969Z,80
2017-09-07T07:06:51.371Z,85
2017-09-07T07:07:52.849Z,100
2017-09-07T07:08:54.251Z,105
2017-09-07T07:09:55.733Z,110
2017-09-07T07:10:57.137Z,110
2017-09-07T07:11:58.611Z,115
2017-09-07T07:13:00.018Z,120
2017-09-07T07:14:01.491Z,95
2017-09-07T07:15:02.904Z,85
2017-09-07T07:16:04.373Z,75
2017-09-07T07:17:05.775Z,65
2017-09-07T07:18:07.248Z,65
2017-09-07T07:19:08.658Z,65
2017-09-07T07:20:10.134Z,75
2017-09-07T07:21:11.535Z,65
2017-09-07T07:22:13.013Z,65
2017-09-07T07:23:14.415Z,70
2017-09-07T07:24:15.893Z,90
2017-09-07T07:25:17.299Z,115
2017-09-07T07:26:18.705Z,120
2017-09-07T07:27:20.216Z,125
2017-09-07T07:28:21.623Z,130
2017-09-07T07:29:23.025Z,135
2017-09-07T07:30:24.536Z,145
2017-09-07T07:31:25.942Z,115
2017-09-07T07:32:27.347Z,140
2017-09-07T07:33:28.862Z,135
2017-09-07T07:34:30.264Z,155
2017-09-07T07:35:31.681Z,140
2017-09-07T07:36:33.179Z,165
2017-09-07T07:37:34.583Z,140
2017-09-07T07:38:36.058Z,135
2017-09-07T07:39:37.463Z,140
2017-09-07T07:40:38.942Z,155
2017-09-07T07:41:40.347Z,180
2017-09-07T07:42:41.754Z,220
2017-09-07T07:43:43.262Z,235
2017-09-07T07:44:44.663Z,215
2017-09-07T07:45:46.067Z,205
2017-09-07T07:46:47.593Z,235
2017-09-07T07:47:49.005Z,210
2017-09-07T07:48:50.407Z,210
2017-09-07T07:49:51.902Z,205
2017-09-07T07:50:53.308Z,200
2017-09-07T07:51:54.724Z,190
2017-09-07T07:52:56.240Z,180
2017-09-07T07:53:57.644Z,175
2017-09-07T07:54:59.051Z,195
2017-09-07T07:56:00.545Z,195
2017-09-07T07:57:01.949Z,195
2017-09-07T07:58:03.429Z,190
2017-09-07T07:59:04.830Z,185
2017-09-07T08:00:06.306Z,190
2017-09-07T08:01:07.707Z,200
2017-09-07T08:02:09.187Z,195
2017-09-07T08:03:10.592Z,190
2017-09-07T08:04:12.071Z,210
2017-09-07T08:05:13.474Z,205
2017-09-07T08:06:15.000Z,220
2017-09-07T08:07:16.409Z,230
2017-09-07T08:08:17.865Z,250
2017-09-07T08:09:19.270Z,245
2017-09-07T08:10:20.710Z,240
2017-09-07T08:11:22.121Z,235
2017-09-07T08:12:23.523Z,250
2017-09-07T08:13:25.032Z,235
2017-09-07T08:14:26.436Z,225
2017-09-07T08:15:27.842Z,230
2017-09-07T08:16:29.354Z,250
2017-09-07T08:17:30.789Z,255
2017-09-07T08:18:32.194Z,260
2017-09-07T08:19:33.675Z,250
2017-09-07T08:20:35.107Z,245
2017-09-07T08:21:36.519Z,285
2017-09-07T08:22:37.992Z,235
2017-09-07T08:23:39.398Z,235
2017-09-07T08:24:40.874Z,450
2017-09-07T08:25:42.280Z,255
2017-09-07T08:26:43.757Z,230
2017-09-07T08:27:45.161Z,225
2017-09-07T08:28:46.646Z,210
2017-09-07T08:29:48.050Z,220
2017-09-07T08:30:49.516Z,210
2017-09-07T08:31:50.922Z,230
2017-09-07T08:32:52.398Z,245
2017-09-07T08:35:19.864Z,270
2017-09-07T08:36:21.267Z,305
2017-09-07T08:41:39.991Z,295
2017-09-07T08:42:41.387Z,335
2017-09-07T08:44:03.555Z,375
2017-09-07T08:45:04.953Z,315
2017-09-07T08:46:26.612Z,320
2017-09-07T08:47:28.014Z,345
2017-09-07T08:48:49.665Z,325
2017-09-07T08:49:51.073Z,240
2017-09-07T08:51:12.722Z,245
2017-09-07T08:52:14.125Z,300
2017-09-07T08:53:35.774Z,270
2017-09-07T08:54:37.170Z,310
2017-09-07T08:55:58.824Z,255
2017-09-07T08:57:00.227Z,215
2017-09-07T08:58:21.881Z,240
2017-09-07T08:59:23.280Z,180
2017-09-07T09:00:44.931Z,140
2017-09-07T09:01:46.332Z,115
2017-09-07T09:03:08.362Z,190
2017-09-07T09:04:09.763Z,275
2017-09-07T09:05:11.272Z,285
2017-09-07T09:06:12.674Z,325
2017-09-07T09:07:14.138Z,240
2017-09-07T09:08:15.586Z,360
2017-09-07T09:09:16.993Z,485
2017-09-07T09:10:18.454Z,210
2017-09-07T09:11:19.852Z,255
2017-09-07T09:12:21.255Z,375
2017-09-07T09:13:22.773Z,375
2017-09-07T09:14:24.178Z,945
2017-09-07T09:15:25.589Z,245
2017-09-07T09:16:27.093Z,190
2017-09-07T09:17:28.498Z,150
2017-09-07T09:18:29.906Z,125
2017-09-07T09:19:31.415Z,215
2017-09-07T09:20:32.815Z,305
2017-09-07T09:21:34.223Z,305
2017-09-07T09:22:35.789Z,200
2017-09-07T09:23:37.194Z,245
2017-09-07T09:24:38.600Z,260
2017-09-07T09:25:40.057Z,275
2017-09-07T09:26:41.457Z,305
2017-09-07T09:27:42.867Z,335
2017-09-07T09:28:44.377Z,330
2017-09-07T09:29:45.781Z,300
2017-09-07T09:30:47.258Z,265
2017-09-07T09:31:48.661Z,285
2017-09-07T09:32:50.187Z,260
2017-09-07T09:33:51.682Z,230
2017-09-07T09:34:53.084Z,220
2017-09-07T09:35:54.489Z,235
2017-09-07T09:36:56.074Z,295
2017-09-07T09:37:57.480Z,320
2017-09-07T09:38:58.985Z,300
2017-09-07T09:40:00.388Z,240
2017-09-07T09:41:01.863Z,175
2017-09-07T09:42:03.271Z,190
2017-09-07T09:43:04.793Z,200
2017-09-07T09:44:06.197Z,215
2017-09-07T09:45:07.608Z,180
2017-09-07T09:46:09.012Z,135
2017-09-07T09:47:10.508Z,110
2017-09-07T09:48:11.930Z,90
2017-09-07T09:49:13.388Z,85
2017-09-07T09:50:14.790Z,185
2017-09-07T09:51:16.284Z,265
2017-09-07T09:52:17.687Z,230
2017-09-07T09:53:19.151Z,245
2017-09-07T09:54:20.555Z,255
2017-09-07T09:55:22.033Z,185
2017-09-07T09:56:23.435Z,165
2017-09-07T09:57:24.936Z,175
2017-09-07T09:58:26.338Z,145
2017-09-07T09:59:27.738Z,150
2017-09-07T10:00:29.233Z,235
2017-09-07T10:01:30.635Z,235
2017-09-07T10:02:32.036Z,260
2017-09-07T10:03:33.553Z,270
2017-09-07T10:04:34.955Z,320
2017-09-07T10:05:36.478Z,290
2017-09-07T10:06:40.288Z,325
2017-09-07T10:07:41.694Z,320
2017-09-07T10:08:43.096Z,665
2017-09-07T10:09:44.506Z,450
2017-09-07T10:10:45.904Z,390
2017-09-07T10:11:47.313Z,335
2017-09-07T10:12:48.715Z,180
2017-09-07T10:13:50.444Z,155
2017-09-07T10:14:51.846Z,255
2017-09-07T10:15:53.259Z,310
2017-09-07T10:16:54.663Z,335
2017-09-07T10:17:56.084Z,430
2017-09-07T10:18:57.484Z,555
2017-09-07T10:19:58.893Z,540
2017-09-07T10:21:00.299Z,465
2017-09-07T10:22:01.711Z,705
2017-09-07T10:23:03.112Z,635
2017-09-07T10:24:04.518Z,650
2017-09-07T10:25:05.921Z,495
2017-09-07T10:26:07.350Z,465
2017-09-07T10:27:08.753Z,570
2017-09-07T10:28:10.161Z,305
2017-09-07T10:29:11.569Z,405
2017-09-07T10:30:12.972Z,450
2017-09-07T10:31:14.376Z,250
2017-09-07T10:32:15.789Z,135
2017-09-07T10:33:17.208Z,145
2017-09-07T10:34:18.613Z,145
2017-09-07T10:35:20.025Z,125
2017-09-07T10:36:21.430Z,125
2017-09-07T10:37:22.833Z,180
2017-09-07T10:38:24.278Z,210
2017-09-07T10:39:25.643Z,350
2017-09-07T10:40:27.048Z,610
2017-09-07T10:41:28.465Z,350
2017-09-07T10:42:29.864Z,365
2017-09-07T10:43:31.268Z,385
2017-09-07T10:44:32.682Z,500
2017-09-07T10:45:34.080Z,500
2017-09-07T10:46:35.492Z,565
2017-09-07T10:47:36.950Z,715
2017-09-07T10:48:38.362Z,495
2017-09-07T10:49:39.846Z,590
2017-09-07T10:50:41.233Z,685
2017-09-07T10:51:42.636Z,695
2017-09-07T10:52:44.044Z,580
2017-09-07T10:53:45.451Z,340
2017-09-07T10:54:46.860Z,350
2017-09-07T10:55:48.262Z,445
2017-09-07T10:56:49.672Z,325
2017-09-07T10:57:51.078Z,330
2017-09-07T10:58:52.487Z,555
2017-09-07T10:59:53.890Z,600
2017-09-07T11:00:55.305Z,515
2017-09-07T11:01:56.711Z,465
2017-09-07T11:02:58.120Z,600
2017-09-07T11:03:59.525Z,510
2017-09-07T11:05:00.939Z,400
2017-09-07T11:06:02.342Z,195
2017-09-07T11:07:03.775Z,175
2017-09-07T11:08:05.184Z,225
2017-09-07T11:09:06.590Z,280
2017-09-07T11:10:07.993Z,265
2017-09-07T11:11:09.408Z,155
2017-09-07T11:12:10.808Z,140
2017-09-07T11:13:12.218Z,215
2017-09-07T11:14:13.616Z,280
2017-09-07T11:15:15.026Z,340
2017-09-07T11:16:16.432Z,435
2017-09-07T11:17:17.853Z,490
2017-09-07T11:18:19.257Z,575
2017-09-07T11:19:20.663Z,425
2017-09-07T11:20:22.074Z,365
2017-09-07T11:21:23.479Z,320
2017-09-07T11:22:24.882Z,315
2017-09-07T11:23:26.293Z,370
2017-09-07T11:24:27.697Z,335
2017-09-07T11:25:29.101Z,250
2017-09-07T11:26:30.512Z,490
2017-09-07T11:27:31.915Z,385
2017-09-07T11:28:33.353Z,730
2017-09-07T11:29:34.761Z,1145
2017-09-07T11:30:36.171Z,360
2017-09-07T11:31:37.599Z,340
2017-09-07T11:32:39.005Z,360
2017-09-07T11:33:40.416Z,495
2017-09-07T11:34:41.819Z,480
2017-09-07T11:35:43.227Z,500
2017-09-07T11:36:44.631Z,500
2017-09-07T11:37:46.043Z,675
2017-09-07T11:38:47.448Z,1595
2017-09-07T11:39:48.859Z,670
2017-09-07T11:40:50.268Z,485
2017-09-07T11:41:51.679Z,1520
2017-09-07T11:42:53.082Z,1515
2017-09-07T11:43:54.495Z,480
2017-09-07T11:44:55.899Z,525
2017-09-07T11:45:57.366Z,1465
2017-09-07T11:46:58.775Z,1355
2017-09-07T11:48:00.188Z,1215
2017-09-07T11:49:01.593Z,1055
2017-09-07T11:50:02.993Z,960
2017-09-07T11:51:04.430Z,860
2017-09-07T11:52:05.839Z,1000
2017-09-07T11:53:07.244Z,1085
2017-09-07T11:54:08.656Z,1090
2017-09-07T11:55:10.065Z,1170
2017-09-07T11:56:11.469Z,1275
2017-09-07T11:57:12.877Z,375
2017-09-07T11:58:14.283Z,350
2017-09-07T11:59:15.689Z,485
2017-09-07T12:00:17.100Z,405
2017-09-07T12:01:18.507Z,275
2017-09-07T12:02:19.913Z,520
2017-09-07T12:03:21.328Z,1250
2017-09-07T12:04:22.731Z,515
2017-09-07T12:05:24.136Z,255
2017-09-07T12:06:25.662Z,525
2017-09-07T12:07:27.054Z,410
2017-09-07T12:08:28.468Z,335
2017-09-07T12:09:29.880Z,860
2017-09-07T12:10:31.275Z,1195
2017-09-07T12:11:32.684Z,1190
2017-09-07T12:12:34.087Z,1145
2017-09-07T12:13:35.487Z,710
2017-09-07T12:14:36.897Z,575
2017-09-07T12:15:38.313Z,925
2017-09-07T12:16:39.723Z,1040
2017-09-07T12:17:41.122Z,810
2017-09-07T12:18:42.531Z,375
2017-09-07T12:19:43.935Z,255
2017-09-07T12:20:45.342Z,305
2017-09-07T12:21:46.745Z,275
2017-09-07T12:22:48.152Z,240
2017-09-07T12:23:49.556Z,235
2017-09-07T12:24:50.966Z,250
2017-09-07T12:25:52.369Z,240
2017-09-07T12:26:53.773Z,260
2017-09-07T12:27:55.183Z,355
2017-09-07T12:28:56.589Z,720
2017-09-07T12:29:57.993Z,495
2017-09-07T12:30:59.404Z,520
2017-09-07T12:32:00.804Z,580
2017-09-07T12:33:02.211Z,640
2017-09-07T12:34:03.623Z,610
2017-09-07T12:35:05.029Z,545
2017-09-07T12:36:06.452Z,320
2017-09-07T12:37:07.861Z,210
2017-09-07T12:38:09.266Z,200
2017-09-07T12:39:10.688Z,295
2017-09-07T12:40:12.100Z,315
2017-09-07T12:41:13.515Z,295
2017-09-07T12:42:14.943Z,240
2017-09-07T12:43:16.474Z,195
2017-09-07T12:44:17.860Z,175
2017-09-07T12:45:19.273Z,130
2017-09-07T12:46:20.683Z,170
2017-09-07T12:47:22.083Z,175
2017-09-07T12:48:23.506Z,145
2017-09-07T12:49:24.913Z,120
2017-09-07T12:50:26.315Z,145
2017-09-07T12:51:27.729Z,150
2017-09-07T12:52:29.134Z,180
2017-09-07T12:53:30.536Z,180
2017-09-07T12:54:31.945Z,155
2017-09-07T12:55:33.378Z,140
2017-09-07T12:56:34.788Z,125
2017-09-07T12:57:36.205Z,120
2017-09-07T12:58:37.615Z,120
2017-09-07T12:59:39.019Z,105
2017-09-07T13:00:40.439Z,75
2017-09-07T13:01:41.839Z,65
2017-09-07T13:02:43.249Z,55
2017-09-07T13:03:44.650Z,50
2017-09-07T13:04:46.056Z,40
2017-09-07T13:05:47.458Z,35
2017-09-07T13:06:48.864Z,35
2017-09-07T13:07:50.266Z,30
2017-09-07T13:08:51.673Z,20
2017-09-07T13:09:53.076Z,20
2017-09-07T13:10:54.486Z,25
2017-09-07T13:11:55.886Z,25
2017-09-07T13:12:57.292Z,25
2017-09-07T13:13:58.699Z,30
2017-09-07T13:15:00.119Z,30
2017-09-07T13:16:01.515Z,25
2017-09-07T13:17:02.921Z,25
2017-09-07T13:18:04.325Z,25
2017-09-07T13:19:05.731Z,25
2017-09-07T13:20:07.135Z,20
2017-09-07T13:21:08.532Z,20
2017-09-07T13:22:09.945Z,25
2017-09-07T13:23:11.345Z,25
2017-09-07T13:24:12.747Z,20
2017-09-07T13:25:14.154Z,25
2017-09-07T13:26:15.559Z,30
2017-09-07T13:27:16.965Z,35
2017-09-07T13:28:18.369Z,40
2017-09-07T13:29:19.792Z,45
2017-09-07T13:30:21.194Z,45
2017-09-07T13:31:22.605Z,40
2017-09-07T13:32:24.015Z,35
2017-09-07T13:33:25.426Z,40
2017-09-07T13:34:27.046Z,55
2017-09-07T13:35:28.453Z,60
2017-09-07T13:36:29.857Z,50
2017-09-07T13:37:31.279Z,65
2017-09-07T13:38:32.696Z,100
2017-09-07T13:39:34.104Z,120
2017-09-07T13:40:35.507Z,150
2017-09-07T13:41:36.916Z,130
2017-09-07T13:42:38.337Z,90
2017-09-07T13:43:39.770Z,120
2017-09-07T13:44:41.178Z,170
2017-09-07T13:45:42.585Z,225
2017-09-07T13:46:43.991Z,240
2017-09-07T13:47:45.402Z,240
2017-09-07T13:48:46.810Z,235
2017-09-07T13:49:48.221Z,225
2017-09-07T13:50:49.627Z,190
2017-09-07T13:51:51.038Z,195
2017-09-07T13:52:52.443Z,205
2017-09-07T13:53:53.850Z,200
2017-09-07T13:54:55.260Z,190
2017-09-07T13:55:56.668Z,180
2017-09-07T13:56:58.077Z,185
2017-09-07T13:57:59.480Z,190
2017-09-07T13:59:00.883Z,200
2017-09-07T14:00:02.292Z,210
2017-09-07T14:01:03.699Z,210
2017-09-07T14:02:05.101Z,210
2017-09-07T14:03:06.512Z,205
2017-09-07T14:04:07.937Z,200
2017-09-07T14:05:09.348Z,195
2017-09-07T14:06:10.749Z,195
2017-09-07T14:07:12.161Z,195
2017-09-07T14:08:13.565Z,195
2017-09-07T14:09:14.981Z,190
2017-09-07T14:10:16.385Z,185
2017-09-07T14:11:17.800Z,185
2017-09-07T14:12:19.233Z,190
2017-09-07T14:13:20.641Z,195
2017-09-07T14:14:22.043Z,200
2017-09-07T14:15:23.453Z,205
2017-09-07T14:16:24.856Z,220
2017-09-07T14:17:26.287Z,225
2017-09-07T14:18:27.691Z,225
2017-09-07T14:19:29.101Z,225
2017-09-07T14:20:30.515Z,200
2017-09-07T14:21:31.927Z,160
2017-09-07T14:22:33.332Z,140
2017-09-07T14:23:34.747Z,150
2017-09-07T14:24:36.199Z,145
2017-09-07T14:25:37.700Z,145
2017-09-07T14:26:39.109Z,120
2017-09-07T14:27:40.561Z,105
2017-09-07T14:28:41.950Z,105
2017-09-07T14:29:43.447Z,120
2017-09-07T14:30:44.851Z,130
2017-09-07T14:31:46.255Z,135
2017-09-07T14:32:47.755Z,135
2017-09-07T14:33:49.176Z,135
2017-09-07T14:34:50.580Z,120
2017-09-07T14:35:52.105Z,105
2017-09-07T14:36:53.506Z,80
2017-09-07T14:37:54.907Z,65
2017-09-07T14:38:58.353Z,65
2017-09-07T14:40:00.185Z,65
2017-09-07T14:41:01.591Z,55
2017-09-07T14:42:03.070Z,50